Time;durP1;ratioP1;P1;durP2;ratioP2;P2;SDS_P1;SDS_P2;PMS_P1;PMS_P2;Temp;Humidity;BMP_temperature;BMP_pressure;BME280_temperature;BME280_humidity;BME280_pressure;Samples;Min_cycle;Max_cycle;Signal;HPM_P1;HPM_P2
2021/05/29 00:01:23;;;;;;;21.67;20.30;;;8.30;99.90;;;;;;5000774;28;20944;-74
2021/05/29 00:03:50;;;;;;;21.20;19.80;;;8.30;99.90;;;;;;4998076;28;20964;-78
2021/05/29 00:06:17;;;;;;;20.83;19.60;;;8.20;99.90;;;;;;4995978;28;20468;-74
2021/05/29 00:08:44;;;;;;;21.73;20.23;;;8.20;99.90;;;;;;5000074;28;20465;-74
2021/05/29 00:11:11;;;;;;;21.10;19.80;;;8.10;99.90;;;;;;5003894;28;20453;-75
2021/05/29 00:13:38;;;;;;;21.83;20.23;;;8.10;99.90;;;;;;4997238;28;20472;-74
2021/05/29 00:16:05;;;;;;;21.30;19.90;;;8.10;99.90;;;;;;5008742;28;20834;-78
2021/05/29 00:18:32;;;;;;;21.20;19.80;;;8.00;99.90;;;;;;5004264;28;20972;-74
2021/05/29 00:20:58;;;;;;;21.90;20.30;;;8.10;99.90;;;;;;5000886;28;20463;-78
2021/05/29 00:23:25;;;;;;;21.67;20.27;;;8.00;99.90;;;;;;5001271;28;20471;-79
2021/05/29 00:25:52;;;;;;;22.10;20.50;;;8.00;99.90;;;;;;5001733;28;20464;-78
2021/05/29 00:28:19;;;;;;;21.00;19.60;;;7.90;99.90;;;;;;4997031;28;20548;-74
2021/05/29 00:30:45;;;;;;;22.20;20.70;;;7.90;99.90;;;;;;5002993;28;20465;-76
2021/05/29 00:33:12;;;;;;;20.73;19.40;;;7.80;99.90;;;;;;5005412;28;20517;-74
2021/05/29 00:35:39;;;;;;;23.10;21.23;;;7.80;99.90;;;;;;5003391;28;20462;-73
2021/05/29 00:38:05;;;;;;;22.90;21.00;;;7.80;99.90;;;;;;5001338;28;20560;-75
2021/05/29 00:40:33;;;;;;;21.97;20.47;;;7.80;99.90;;;;;;4998251;28;20472;-80
2021/05/29 00:43:00;;;;;;;22.00;20.23;;;7.80;99.90;;;;;;5004668;28;20463;-74
2021/05/29 00:45:27;;;;;;;22.17;20.67;;;7.80;99.90;;;;;;5006594;28;20467;-77
2021/05/29 00:47:53;;;;;;;21.07;19.60;;;7.70;99.90;;;;;;5001010;28;20492;-74
2021/05/29 00:50:20;;;;;;;22.27;20.67;;;7.70;99.90;;;;;;5006563;28;20773;-73
2021/05/29 00:52:47;;;;;;;22.80;21.10;;;7.70;99.90;;;;;;5000577;28;20466;-73
2021/05/29 00:55:15;;;;;;;21.90;20.10;;;7.70;99.90;;;;;;5009175;28;20483;-74
2021/05/29 00:57:46;;;;;;;21.90;20.40;;;7.60;99.90;;;;;;4999270;28;20474;-74
2021/05/29 01:00:16;;;;;;;21.47;19.97;;;7.50;99.90;;;;;;5003326;28;20461;-74
2021/05/29 01:02:42;;;;;;;22.73;21.00;;;7.50;99.90;;;;;;5003832;28;20989;-74
2021/05/29 01:05:12;;;;;;;22.70;21.10;;;7.60;99.90;;;;;;5000165;28;20468;-74
2021/05/29 01:07:39;;;;;;;21.17;19.70;;;7.60;99.90;;;;;;5005705;28;20833;-76
2021/05/29 01:10:07;;;;;;;20.80;19.40;;;7.70;99.90;;;;;;5003420;28;20495;-74
2021/05/29 01:12:34;;;;;;;21.77;20.27;;;7.70;99.90;;;;;;5000764;28;20461;-77
2021/05/29 01:15:04;;;;;;;21.23;19.67;;;7.60;99.90;;;;;;5000505;28;20828;-74
2021/05/29 01:17:30;;;;;;;22.80;21.00;;;7.70;99.90;;;;;;5001443;28;20878;-76
2021/05/29 01:19:57;;;;;;;22.90;21.20;;;7.70;99.90;;;;;;4999238;28;20613;-76
2021/05/29 01:22:42;;;;;;;21.57;20.17;;;7.70;99.90;;;;;;5001297;28;20832;-73
2021/05/29 01:25:17;;;;;;;21.67;20.17;;;7.60;99.90;;;;;;5006108;28;20451;-73
2021/05/29 01:27:44;;;;;;;21.53;19.83;;;7.60;99.90;;;;;;5001571;28;20497;-77
2021/05/29 01:30:13;;;;;;;20.57;19.27;;;7.60;99.90;;;;;;4981603;28;20484;-74
2021/05/29 01:32:40;;;;;;;21.33;19.93;;;7.50;99.90;;;;;;4980365;28;20846;-74
2021/05/29 01:35:09;;;;;;;22.50;20.87;;;7.40;99.90;;;;;;4984479;28;20479;-74
2021/05/29 01:37:37;;;;;;;23.37;21.60;;;7.40;99.90;;;;;;4981571;28;20520;-74
2021/05/29 01:40:06;;;;;;;24.40;22.40;;;7.50;99.90;;;;;;4981055;28;20469;-77
2021/05/29 01:42:33;;;;;;;23.70;21.80;;;7.50;99.90;;;;;;4976464;28;20482;-73
2021/05/29 01:45:02;;;;;;;24.17;21.87;;;7.50;99.90;;;;;;4983465;28;20457;-73
2021/05/29 01:47:28;;;;;;;21.93;20.53;;;7.50;99.90;;;;;;4978106;28;20494;-75
2021/05/29 01:49:54;;;;;;;21.40;20.00;;;7.40;99.90;;;;;;4986336;28;20981;-73
2021/05/29 01:52:20;;;;;;;22.57;21.00;;;7.30;99.90;;;;;;4981863;28;20459;-75
2021/05/29 01:54:47;;;;;;;23.20;21.60;;;7.20;99.90;;;;;;4981310;28;21086;-73
2021/05/29 01:57:16;;;;;;;23.90;22.20;;;7.20;99.90;;;;;;4981312;28;20467;-75
2021/05/29 01:59:42;;;;;;;22.77;21.27;;;7.20;99.90;;;;;;4981367;28;20468;-73
2021/05/29 02:02:08;;;;;;;22.33;20.73;;;7.10;99.90;;;;;;4983077;28;20625;-73
2021/05/29 02:04:35;;;;;;;22.97;21.20;;;7.10;99.90;;;;;;4983703;28;20572;-73
2021/05/29 02:07:01;;;;;;;22.60;21.03;;;7.20;99.90;;;;;;4978335;28;20530;-73
2021/05/29 02:09:28;;;;;;;23.90;22.00;;;7.10;99.90;;;;;;4979848;28;20472;-73
2021/05/29 02:11:54;;;;;;;23.37;21.23;;;7.10;99.90;;;;;;4983030;28;20470;-73
2021/05/29 02:14:21;;;;;;;23.37;21.53;;;7.10;99.90;;;;;;4981517;28;20461;-76
2021/05/29 02:16:48;;;;;;;23.40;21.60;;;7.10;99.90;;;;;;4982442;28;20835;-75
2021/05/29 02:19:14;;;;;;;23.80;22.20;;;7.00;99.90;;;;;;4979497;28;20467;-77
2021/05/29 02:21:41;;;;;;;23.10;21.50;;;7.00;99.90;;;;;;4983748;28;20459;-73
2021/05/29 02:24:07;;;;;;;22.87;21.17;;;6.90;99.90;;;;;;4977129;28;20472;-75
2021/05/29 02:26:33;;;;;;;24.90;22.70;;;6.80;99.90;;;;;;4980095;28;20463;-73
2021/05/29 02:29:00;;;;;;;24.33;22.43;;;6.80;99.90;;;;;;4987641;28;20915;-75
2021/05/29 02:31:28;;;;;;;25.07;23.00;;;6.70;99.90;;;;;;5004159;28;20469;-73
2021/05/29 02:33:54;;;;;;;23.73;22.03;;;6.70;99.90;;;;;;5004545;28;20468;-74
2021/05/29 02:36:21;;;;;;;24.80;22.90;;;6.70;99.90;;;;;;4999150;28;20553;-72
2021/05/29 02:38:47;;;;;;;24.77;22.73;;;6.60;99.90;;;;;;4998736;28;20996;-73
2021/05/29 02:41:15;;;;;;;25.57;23.67;;;6.50;99.90;;;;;;4999006;28;20469;-73
2021/05/29 02:43:42;;;;;;;23.90;22.10;;;6.50;99.90;;;;;;4997035;28;20832;-74
2021/05/29 02:46:08;;;;;;;24.13;22.47;;;6.40;99.90;;;;;;5001639;28;21069;-76
2021/05/29 02:48:36;;;;;;;23.73;21.73;;;6.40;99.90;;;;;;5000452;28;20497;-75
2021/05/29 02:51:03;;;;;;;24.00;22.30;;;6.40;99.90;;;;;;5000446;28;20460;-77
2021/05/29 02:53:30;;;;;;;25.43;23.63;;;6.30;99.90;;;;;;4998444;28;20886;-73
2021/05/29 02:55:56;;;;;;;25.87;23.43;;;6.40;99.90;;;;;;5000195;28;20513;-72
2021/05/29 02:58:23;;;;;;;24.83;23.00;;;6.30;99.90;;;;;;4995235;28;20489;-78
2021/05/29 03:00:50;;;;;;;24.70;22.80;;;6.40;99.90;;;;;;4999043;28;20532;-75
2021/05/29 03:03:16;;;;;;;23.27;21.50;;;6.40;99.90;;;;;;5002988;28;21244;-78
2021/05/29 03:05:47;;;;;;;24.80;23.00;;;6.40;99.90;;;;;;4999006;28;20465;-74
2021/05/29 03:08:16;;;;;;;24.83;23.03;;;6.30;99.90;;;;;;4996788;28;20493;-74
2021/05/29 03:10:44;;;;;;;24.77;22.87;;;6.30;99.90;;;;;;5000787;28;20464;-76
2021/05/29 03:13:10;;;;;;;23.97;22.30;;;6.20;99.90;;;;;;4993598;28;20471;-75
2021/05/29 03:15:37;;;;;;;23.57;21.97;;;6.10;99.90;;;;;;5000242;28;20555;-76
2021/05/29 03:18:06;;;;;;;23.93;22.30;;;6.10;99.90;;;;;;4997958;28;20638;-75
2021/05/29 03:20:33;;;;;;;24.73;23.00;;;6.10;99.90;;;;;;5001785;28;20823;-74
2021/05/29 03:23:01;;;;;;;24.17;22.50;;;6.10;99.90;;;;;;5000911;28;20980;-76
2021/05/29 03:25:28;;;;;;;24.83;22.93;;;6.20;99.90;;;;;;4990356;28;20457;-75
2021/05/29 03:27:55;;;;;;;24.47;22.17;;;6.20;99.90;;;;;;4997307;28;20490;-78
2021/05/29 03:30:23;;;;;;;24.93;22.93;;;6.20;99.90;;;;;;5001843;28;20575;-77
2021/05/29 03:32:51;;;;;;;26.40;24.30;;;6.30;99.90;;;;;;4999649;28;20464;-74
2021/05/29 03:35:18;;;;;;;26.93;24.83;;;6.40;99.90;;;;;;4998947;28;20488;-76
2021/05/29 03:37:45;;;;;;;28.13;25.47;;;6.50;99.90;;;;;;5001879;28;20964;-74
2021/05/29 03:40:15;;;;;;;25.30;23.33;;;6.60;99.90;;;;;;4999584;28;21080;-78
2021/05/29 03:42:42;;;;;;;25.93;23.73;;;6.60;99.90;;;;;;5001207;28;20571;-74
2021/05/29 03:45:12;;;;;;;28.10;25.70;;;6.70;99.90;;;;;;4999888;28;20479;-77
2021/05/29 03:47:38;;;;;;;27.00;24.80;;;6.80;99.90;;;;;;5002033;28;20485;-73
2021/05/29 03:50:06;;;;;;;28.40;26.10;;;6.80;99.90;;;;;;5005955;28;20834;-77
2021/05/29 03:52:32;;;;;;;27.40;25.10;;;6.80;99.90;;;;;;5001387;28;20489;-75
2021/05/29 03:54:58;;;;;;;25.47;23.43;;;6.80;99.90;;;;;;5006245;28;20481;-73
2021/05/29 03:57:27;;;;;;;25.93;23.80;;;6.90;99.90;;;;;;4998294;28;20458;-75
2021/05/29 03:59:53;;;;;;;25.80;23.70;;;6.80;99.90;;;;;;5001785;28;20465;-75
2021/05/29 04:02:19;;;;;;;27.37;24.97;;;6.90;99.90;;;;;;5005797;28;20465;-75
2021/05/29 04:04:45;;;;;;;25.40;22.47;;;6.90;99.90;;;;;;5006396;28;20464;-74
2021/05/29 04:07:12;;;;;;;26.37;24.17;;;6.90;99.90;;;;;;5004349;28;20860;-76
2021/05/29 04:09:39;;;;;;;26.60;24.50;;;6.90;99.90;;;;;;5005207;28;20461;-75
2021/05/29 04:12:06;;;;;;;25.13;23.30;;;7.00;99.90;;;;;;5001791;28;20505;-73
2021/05/29 04:14:34;;;;;;;26.43;24.33;;;7.10;99.90;;;;;;5002868;28;20571;-78
2021/05/29 04:17:01;;;;;;;25.30;23.40;;;7.10;99.90;;;;;;4998637;28;20466;-75
2021/05/29 04:19:27;;;;;;;26.13;23.87;;;7.10;99.90;;;;;;5005210;28;20466;-77
2021/05/29 04:21:53;;;;;;;30.00;27.10;;;7.20;99.90;;;;;;5002018;28;20473;-75
2021/05/29 04:24:20;;;;;;;26.90;24.50;;;7.20;99.90;;;;;;5003878;28;21043;-74
2021/05/29 04:26:46;;;;;;;26.47;24.47;;;7.30;99.90;;;;;;4999129;28;20470;-75
2021/05/29 04:29:13;;;;;;;26.87;24.60;;;7.30;99.90;;;;;;5002760;28;20492;-75
2021/05/29 04:31:40;;;;;;;26.80;24.47;;;7.30;99.90;;;;;;4997824;28;20477;-75
2021/05/29 04:34:07;;;;;;;24.83;22.77;;;7.40;99.90;;;;;;4998126;28;20466;-78
2021/05/29 04:36:33;;;;;;;26.73;24.73;;;7.40;99.90;;;;;;5004861;28;21630;-76
2021/05/29 04:39:01;;;;;;;27.50;24.97;;;7.50;99.90;;;;;;5004436;28;20534;-74
2021/05/29 04:41:27;;;;;;;28.60;26.13;;;7.60;99.90;;;;;;5001545;28;20835;-75
2021/05/29 04:43:54;;;;;;;26.23;23.90;;;7.60;99.90;;;;;;5004558;28;20473;-74
2021/05/29 04:46:21;;;;;;;27.37;24.73;;;7.70;99.90;;;;;;5003085;28;20461;-77
2021/05/29 04:48:48;;;;;;;29.47;26.77;;;7.70;99.90;;;;;;5003345;28;20856;-74
2021/05/29 04:51:15;;;;;;;27.10;24.60;;;7.80;99.90;;;;;;4997716;28;20470;-76
2021/05/29 04:53:43;;;;;;;27.33;25.23;;;7.90;99.90;;;;;;4999318;28;20541;-76
2021/05/29 04:56:10;;;;;;;27.40;25.10;;;8.00;99.90;;;;;;5003514;28;20459;-74
2021/05/29 04:58:38;;;;;;;28.67;26.03;;;8.00;99.90;;;;;;4997836;28;20525;-76
2021/05/29 05:01:06;;;;;;;28.73;26.13;;;8.10;99.90;;;;;;5007938;28;20470;-76
2021/05/29 05:03:32;;;;;;;28.90;26.00;;;8.10;99.90;;;;;;5006294;28;20471;-72
2021/05/29 05:05:59;;;;;;;28.50;26.07;;;8.20;99.90;;;;;;5002208;28;20981;-73
2021/05/29 05:08:26;;;;;;;29.23;26.50;;;8.30;99.90;;;;;;5001268;28;21162;-73
2021/05/29 05:10:55;;;;;;;29.07;26.20;;;8.40;99.90;;;;;;5000131;28;20469;-73
2021/05/29 05:13:21;;;;;;;29.70;27.07;;;8.60;99.90;;;;;;5001994;28;20475;-73
2021/05/29 05:15:48;;;;;;;31.43;27.93;;;8.70;99.90;;;;;;5001491;28;20472;-74
2021/05/29 05:18:14;;;;;;;30.90;28.27;;;8.80;99.90;;;;;;5005962;28;20946;-72
2021/05/29 05:20:42;;;;;;;33.50;30.00;;;9.00;99.90;;;;;;4997392;28;20496;-74
2021/05/29 05:23:10;;;;;;;30.20;27.30;;;9.20;99.90;;;;;;5004262;28;20479;-74
2021/05/29 05:25:37;;;;;;;30.97;27.83;;;9.30;99.90;;;;;;5002298;28;20465;-73
2021/05/29 05:28:03;;;;;;;31.73;28.60;;;9.50;99.90;;;;;;5005556;28;20830;-73
2021/05/29 05:30:30;;;;;;;32.97;29.87;;;9.60;99.90;;;;;;5008361;28;20856;-73
2021/05/29 05:32:59;;;;;;;31.77;29.07;;;9.80;99.90;;;;;;5003161;28;20456;-75
2021/05/29 05:35:26;;;;;;;31.27;28.27;;;10.10;99.90;;;;;;5003678;28;20460;-75
2021/05/29 05:37:52;;;;;;;30.20;27.20;;;10.20;99.90;;;;;;5002837;28;20549;-73
2021/05/29 05:40:19;;;;;;;32.13;29.00;;;10.40;99.90;;;;;;5001325;28;20468;-75
2021/05/29 05:42:45;;;;;;;30.00;27.30;;;10.50;99.90;;;;;;5006106;28;20465;-72
2021/05/29 05:45:13;;;;;;;31.30;28.50;;;10.70;99.90;;;;;;4997642;28;21390;-74
2021/05/29 05:47:39;;;;;;;29.53;27.07;;;10.80;99.90;;;;;;5000905;28;21081;-72
2021/05/29 05:50:09;;;;;;;30.60;27.57;;;10.90;99.90;;;;;;5002573;28;20528;-74
2021/05/29 05:52:35;;;;;;;29.50;26.70;;;11.10;99.90;;;;;;5002390;28;20532;-74
2021/05/29 05:55:03;;;;;;;29.77;27.07;;;11.20;99.90;;;;;;5005678;28;20481;-74
2021/05/29 05:57:32;;;;;;;28.70;26.00;;;11.40;99.90;;;;;;5003025;28;20515;-74
2021/05/29 05:59:58;;;;;;;28.07;25.37;;;11.50;99.90;;;;;;4999239;28;20493;-73
2021/05/29 06:02:25;;;;;;;26.77;24.57;;;11.60;99.90;;;;;;5004819;28;20469;-75
2021/05/29 06:04:51;;;;;;;29.00;26.60;;;11.70;99.90;;;;;;5003932;28;20466;-76
2021/05/29 06:07:17;;;;;;;28.50;25.70;;;11.80;99.90;;;;;;5003904;28;21417;-75
2021/05/29 06:09:45;;;;;;;27.93;25.30;;;11.90;99.90;;;;;;4996259;28;20985;-74
2021/05/29 06:12:12;;;;;;;27.90;24.93;;;12.10;99.90;;;;;;5001130;28;21004;-73
2021/05/29 06:20:11;;;;;;;27.43;24.87;;;12.40;99.90;;;;;;4993306;28;20458;-75
2021/05/29 06:22:39;;;;;;;25.77;23.57;;;12.50;99.90;;;;;;4992979;28;20587;-77
2021/05/29 06:25:07;;;;;;;24.70;22.87;;;12.70;99.90;;;;;;4997749;28;20453;-74
2021/05/29 06:27:33;;;;;;;26.60;24.17;;;12.70;99.90;;;;;;4999344;28;20615;-75
2021/05/29 06:30:00;;;;;;;26.20;23.63;;;12.80;99.90;;;;;;5000911;28;20486;-75
2021/05/29 06:32:27;;;;;;;27.67;25.33;;;12.70;99.90;;;;;;5008487;28;20472;-76
2021/05/29 06:34:53;;;;;;;23.70;21.60;;;12.80;99.90;;;;;;4999729;28;20509;-75
2021/05/29 06:37:19;;;;;;;23.17;21.30;;;13.00;99.90;;;;;;4999697;28;20503;-74
2021/05/29 06:39:46;;;;;;;24.20;22.10;;;13.20;99.90;;;;;;4997810;28;20687;-75
2021/05/29 06:42:12;;;;;;;24.50;22.43;;;13.30;99.90;;;;;;4996323;28;21039;-74
2021/05/29 06:44:38;;;;;;;22.53;20.30;;;13.40;99.90;;;;;;4999915;28;20474;-76
2021/05/29 06:47:06;;;;;;;19.60;18.30;;;13.60;99.90;;;;;;5003273;28;20607;-74
2021/05/29 06:49:35;;;;;;;21.47;19.77;;;13.80;99.90;;;;;;5007770;28;20777;-75
2021/05/29 06:52:05;;;;;;;21.73;20.00;;;14.00;99.90;;;;;;5002816;28;20465;-75
2021/05/29 06:54:42;;;;;;;21.13;19.63;;;14.20;99.90;;;;;;5001178;28;21098;-77
2021/05/29 06:59:53;;;;;;;22.17;20.40;;;14.20;99.90;;;;;;4996678;28;20501;-74
2021/05/29 07:02:20;;;;;;;19.57;18.20;;;14.30;99.90;;;;;;5006450;28;20470;-73
2021/05/29 07:04:46;;;;;;;21.73;20.03;;;14.40;99.90;;;;;;5000216;28;20799;-75
2021/05/29 07:07:12;;;;;;;21.27;19.70;;;14.60;99.90;;;;;;4997481;28;20505;-75
2021/05/29 07:09:39;;;;;;;21.43;19.83;;;14.80;99.90;;;;;;4999973;28;20969;-75
2021/05/29 07:12:06;;;;;;;20.53;18.97;;;14.60;99.90;;;;;;5002568;28;20458;-73
2021/05/29 07:14:32;;;;;;;20.50;19.17;;;14.80;99.90;;;;;;5002107;28;20473;-74
2021/05/29 07:17:01;;;;;;;20.50;18.80;;;15.00;99.90;;;;;;5001508;28;20826;-75
2021/05/29 07:19:28;;;;;;;18.90;17.50;;;14.90;99.90;;;;;;5000379;28;20466;-79
2021/05/29 07:21:55;;;;;;;19.00;17.70;;;15.20;99.90;;;;;;5001756;28;20457;-75
2021/05/29 07:24:22;;;;;;;18.97;17.77;;;15.10;99.90;;;;;;4998385;28;20467;-74
2021/05/29 07:26:48;;;;;;;18.83;17.63;;;15.20;99.90;;;;;;4998126;28;20524;-75
2021/05/29 07:29:16;;;;;;;20.40;18.70;;;15.40;99.90;;;;;;5002174;28;20494;-75
2021/05/29 07:31:43;;;;;;;19.10;17.83;;;15.50;99.90;;;;;;5001913;28;20529;-75
2021/05/29 07:34:09;;;;;;;20.00;18.70;;;15.70;99.90;;;;;;5003345;28;20966;-75
2021/05/29 07:36:36;;;;;;;19.93;18.53;;;15.70;99.90;;;;;;5004045;28;20800;-75
2021/05/29 07:39:04;;;;;;;19.37;18.07;;;15.80;99.90;;;;;;5001932;28;20454;-75
2021/05/29 07:41:32;;;;;;;19.80;18.60;;;15.90;99.90;;;;;;4997732;28;20818;-75
2021/05/29 07:43:58;;;;;;;18.73;17.43;;;15.90;99.90;;;;;;4995774;28;20878;-75
2021/05/29 07:46:26;;;;;;;19.60;18.20;;;15.80;99.90;;;;;;5000846;28;20516;-77
2021/05/29 07:48:53;;;;;;;19.20;17.90;;;15.80;99.90;;;;;;5001443;28;20476;-75
2021/05/29 07:51:20;;;;;;;19.63;18.33;;;15.80;99.90;;;;;;4999839;28;20835;-78
2021/05/29 07:53:48;;;;;;;20.50;19.00;;;15.90;99.90;;;;;;4999539;28;20468;-75
2021/05/29 07:56:17;;;;;;;19.50;18.20;;;16.00;99.90;;;;;;4995982;28;20847;-75
2021/05/29 07:58:44;;;;;;;18.70;17.60;;;16.10;99.90;;;;;;5000541;28;20548;-78
2021/05/29 08:01:11;;;;;;;18.00;16.90;;;16.20;99.90;;;;;;5005876;28;20531;-75
2021/05/29 08:03:38;;;;;;;18.70;17.30;;;16.50;99.90;;;;;;4995022;28;20457;-81
2021/05/29 08:06:09;;;;;;;19.50;17.77;;;16.70;99.90;;;;;;4997682;28;20589;-75
2021/05/29 08:08:35;;;;;;;18.40;17.40;;;17.00;99.90;;;;;;4995924;28;20498;-80
2021/05/29 08:11:07;;;;;;;17.90;16.80;;;17.40;99.90;;;;;;5000707;28;20458;-80
2021/05/29 08:13:42;;;;;;;17.70;16.57;;;18.20;99.90;;;;;;4999079;28;20480;-74
2021/05/29 08:16:16;;;;;;;17.53;16.50;;;18.90;99.90;;;;;;4990874;28;21030;-77
2021/05/29 08:18:42;;;;;;;16.30;15.30;;;19.20;99.90;;;;;;5001005;28;20480;-78
2021/05/29 08:21:09;;;;;;;17.73;16.63;;;19.40;99.90;;;;;;5002261;28;20543;-76
2021/05/29 08:23:42;;;;;;;17.30;16.40;;;19.50;99.90;;;;;;4998935;28;20467;-76
2021/05/29 08:26:09;;;;;;;17.37;16.23;;;19.70;99.90;;;;;;4997291;28;21107;-76
2021/05/29 08:28:36;;;;;;;17.33;16.33;;;20.00;99.90;;;;;;4997364;28;20509;-76
2021/05/29 08:31:04;;;;;;;17.67;16.13;;;20.50;99.90;;;;;;5001009;28;20835;-76
2021/05/29 08:33:31;;;;;;;16.20;15.30;;;20.60;99.90;;;;;;4999108;28;20461;-77
2021/05/29 08:35:58;;;;;;;17.10;15.80;;;20.90;99.90;;;;;;5003177;28;20968;-77
2021/05/29 08:38:25;;;;;;;17.03;15.93;;;21.50;99.90;;;;;;5000102;28;20969;-73
2021/05/29 08:40:52;;;;;;;17.63;16.43;;;20.80;99.90;;;;;;5000700;28;20488;-78
2021/05/29 08:43:19;;;;;;;16.60;15.70;;;20.40;99.90;;;;;;4998409;28;20458;-79
2021/05/29 08:45:46;;;;;;;16.30;15.30;;;21.50;99.90;;;;;;5004637;28;20462;-76
2021/05/29 08:48:13;;;;;;;16.43;15.43;;;22.90;99.90;;;;;;5006026;28;20528;-75
2021/05/29 08:51:12;;;;;;;16.53;15.63;;;22.80;99.90;;;;;;5004189;28;20818;-75
2021/05/29 08:53:27;;;;;;;16.80;15.80;;;22.90;99.30;;;;;;5000214;28;20850;-75
2021/05/29 08:55:53;;;;;;;16.73;15.77;;;22.90;97.80;;;;;;5001474;28;20494;-75
2021/05/29 08:58:21;;;;;;;17.37;16.43;;;22.60;97.20;;;;;;5004474;28;20473;-75
2021/05/29 09:00:47;;;;;;;18.20;16.87;;;22.50;98.10;;;;;;5004212;28;21044;-76
2021/05/29 09:03:15;;;;;;;17.73;16.63;;;23.00;98.10;;;;;;5001514;28;20549;-76
2021/05/29 09:05:44;;;;;;;19.17;17.80;;;23.20;97.90;;;;;;4997720;28;20989;-75
2021/05/29 09:08:13;;;;;;;19.37;18.07;;;23.50;97.30;;;;;;5001429;28;20593;-80
2021/05/29 09:10:41;;;;;;;18.10;16.60;;;24.20;97.40;;;;;;4997026;28;20457;-76
2021/05/29 09:13:10;;;;;;;17.70;16.53;;;24.10;95.10;;;;;;5004271;28;20474;-79
2021/05/29 09:15:43;;;;;;;19.20;17.80;;;23.80;93.30;;;;;;5006081;28;20965;-76
2021/05/29 09:18:22;;;;;;;17.00;15.67;;;23.70;94.20;;;;;;4996431;28;20462;-75
2021/05/29 09:20:48;;;;;;;18.53;17.23;;;23.70;94.60;;;;;;5000320;28;20469;-74
2021/05/29 09:23:14;;;;;;;17.13;16.00;;;23.10;93.40;;;;;;5001636;28;20462;-76
2021/05/29 09:25:53;;;;;;;17.70;16.67;;;22.00;94.20;;;;;;5002764;28;20472;-75
2021/05/29 09:28:24;;;;;;;18.63;17.17;;;23.10;94.80;;;;;;4997312;28;20486;-77
2021/05/29 09:30:53;;;;;;;19.17;17.80;;;24.20;94.40;;;;;;5008691;28;20458;-75
2021/05/29 09:33:21;;;;;;;18.47;17.10;;;24.30;94.10;;;;;;5004056;28;20657;-75
2021/05/29 09:35:55;;;;;;;18.43;17.13;;;23.60;94.30;;;;;;5001401;28;20461;-74
2021/05/29 09:38:21;;;;;;;17.90;16.70;;;23.10;94.30;;;;;;4999755;28;21073;-75
2021/05/29 09:40:53;;;;;;;16.37;15.47;;;22.20;95.00;;;;;;5003983;28;21035;-75
2021/05/29 09:43:20;;;;;;;17.37;16.17;;;22.10;94.70;;;;;;5003720;28;20496;-75
2021/05/29 09:45:58;;;;;;;15.57;14.77;;;22.50;95.10;;;;;;5001146;28;20907;-76
2021/05/29 09:48:25;;;;;;;16.97;15.60;;;24.00;91.80;;;;;;4998133;28;20503;-78
2021/05/29 09:51:08;;;;;;;16.33;15.43;;;24.90;92.50;;;;;;5001682;28;20995;-75
2021/05/29 09:53:36;;;;;;;17.53;16.33;;;25.10;90.90;;;;;;5001105;28;20564;-75
2021/05/29 09:56:03;;;;;;;16.77;15.47;;;25.50;90.70;;;;;;4999878;28;20497;-75
2021/05/29 09:58:53;;;;;;;18.10;16.50;;;25.40;90.60;;;;;;5002453;28;20458;-74
2021/05/29 10:01:39;;;;;;;17.30;16.00;;;24.80;91.30;;;;;;5000462;28;20872;-76
2021/05/29 10:04:06;;;;;;;17.30;16.20;;;24.20;91.20;;;;;;4992697;28;20471;-74
2021/05/29 10:06:32;;;;;;;17.20;16.30;;;23.00;90.70;;;;;;5000956;28;20539;-75
2021/05/29 10:08:59;;;;;;;16.90;15.90;;;22.40;91.50;;;;;;4997688;28;20995;-76
2021/05/29 10:11:27;;;;;;;16.10;15.20;;;22.30;92.20;;;;;;4998554;28;20466;-76
2021/05/29 10:13:53;;;;;;;15.03;14.20;;;23.50;90.70;;;;;;5003281;28;20454;-74
2021/05/29 10:16:20;;;;;;;14.90;14.00;;;23.70;90.00;;;;;;4995315;28;20466;-74
2021/05/29 10:18:50;;;;;;;16.53;15.53;;;24.40;90.60;;;;;;5003861;28;20470;-76
2021/05/29 10:21:18;;;;;;;15.87;14.97;;;24.80;91.30;;;;;;5001643;28;20486;-75
2021/05/29 10:23:47;;;;;;;15.83;15.00;;;23.70;89.10;;;;;;5000303;28;20458;-74
2021/05/29 10:26:15;;;;;;;15.90;14.90;;;23.10;90.10;;;;;;4996726;28;20469;-74
2021/05/29 10:28:41;;;;;;;15.63;14.83;;;22.20;91.10;;;;;;5001298;28;20504;-75
2021/05/29 10:31:08;;;;;;;15.50;14.50;;;22.70;90.90;;;;;;4996720;28;20704;-76
2021/05/29 10:33:45;;;;;;;15.40;14.50;;;23.20;90.80;;;;;;4999498;28;21017;-74
2021/05/29 10:36:39;;;;;;;14.53;13.60;;;24.10;90.20;;;;;;4996766;28;20473;-76
2021/05/29 10:39:09;;;;;;;14.83;14.03;;;24.40;87.50;;;;;;5003690;28;20462;-76
2021/05/29 10:41:56;;;;;;;15.50;14.60;;;25.10;88.50;;;;;;5000887;28;20485;-75
2021/05/29 10:44:31;;;;;;;15.23;14.43;;;26.00;85.20;;;;;;4999147;28;21061;-75
2021/05/29 10:47:15;;;;;;;15.80;15.00;;;26.40;85.60;;;;;;4996453;28;20481;-73
2021/05/29 10:49:57;;;;;;;16.03;15.23;;;25.70;84.10;;;;;;5006935;28;20462;-75
2021/05/29 10:52:49;;;;;;;15.00;14.10;;;25.50;85.40;;;;;;4998252;28;20832;-74
2021/05/29 10:55:23;;;;;;;15.00;14.27;;;24.80;83.40;;;;;;4999620;28;21065;-73
2021/05/29 10:57:51;;;;;;;15.93;14.70;;;24.50;85.80;;;;;;4994638;28;20458;-75
2021/05/29 11:00:57;;;;;;;15.70;14.50;;;25.30;84.80;;;;;;5000937;28;20827;-74
2021/05/29 11:03:25;;;;;;;14.87;13.90;;;26.40;84.20;;;;;;4996416;28;20494;-76
2021/05/29 11:05:53;;;;;;;14.70;14.00;;;26.60;84.50;;;;;;5003332;28;20669;-76
2021/05/29 11:08:50;;;;;;;15.80;14.80;;;27.20;82.40;;;;;;4995355;28;20509;-74
2021/05/29 11:11:51;;;;;;;15.27;14.10;;;27.60;78.40;;;;;;4998229;28;21027;-75
2021/05/29 11:14:19;;;;;;;16.13;15.07;;;26.40;78.40;;;;;;4995638;28;20568;-75
2021/05/29 11:17:08;;;;;;;15.60;14.53;;;26.70;77.40;;;;;;4999408;28;20462;-75
2021/05/29 11:19:36;;;;;;;14.97;14.07;;;27.30;78.20;;;;;;5000717;28;20455;-75
2021/05/29 11:22:04;;;;;;;15.93;15.07;;;27.60;76.00;;;;;;5003588;28;20463;-74
2021/05/29 11:24:33;;;;;;;15.87;15.07;;;27.30;75.40;;;;;;5001516;28;20493;-74
2021/05/29 11:27:00;;;;;;;15.43;14.53;;;26.60;75.90;;;;;;4999774;28;20844;-74
2021/05/29 11:29:27;;;;;;;14.63;13.90;;;26.10;78.40;;;;;;4998670;28;20889;-74
2021/05/29 11:31:53;;;;;;;15.47;14.70;;;26.40;79.00;;;;;;5001725;28;20467;-75
2021/05/29 11:34:20;;;;;;;16.83;15.73;;;27.10;77.80;;;;;;4993109;28;20984;-75
2021/05/29 11:36:46;;;;;;;15.97;14.80;;;27.10;74.70;;;;;;5000233;28;20476;-75
2021/05/29 11:39:16;;;;;;;16.40;15.60;;;27.00;74.80;;;;;;4999955;28;20461;-74
2021/05/29 11:41:44;;;;;;;16.43;15.50;;;25.20;77.60;;;;;;4999393;28;20507;-74
2021/05/29 11:44:21;;;;;;;17.20;16.10;;;24.70;79.50;;;;;;4994317;28;20469;-74
2021/05/29 11:46:48;;;;;;;16.70;15.53;;;24.30;79.50;;;;;;5000896;28;20453;-74
2021/05/29 11:49:14;;;;;;;16.07;15.17;;;25.30;77.40;;;;;;5000560;28;20490;-74
2021/05/29 11:51:44;;;;;;;16.00;15.00;;;25.80;74.90;;;;;;4997448;28;20470;-74
2021/05/29 11:54:13;;;;;;;16.00;15.20;;;27.10;73.80;;;;;;5000260;28;20473;-74
2021/05/29 11:56:43;;;;;;;16.27;14.93;;;27.90;71.70;;;;;;4998908;28;20477;-74
2021/05/29 11:59:13;;;;;;;16.20;15.33;;;28.00;72.60;;;;;;5000768;28;20855;-74
2021/05/29 12:01:42;;;;;;;17.37;16.13;;;27.30;71.70;;;;;;5001433;28;20469;-74
2021/05/29 12:04:10;;;;;;;15.77;14.87;;;25.60;71.80;;;;;;4992371;28;20551;-74
2021/05/29 12:06:42;;;;;;;15.90;15.00;;;24.80;71.80;;;;;;5003151;28;20484;-73
2021/05/29 12:09:11;;;;;;;16.60;15.60;;;25.50;73.50;;;;;;5002510;28;20492;-74
2021/05/29 12:11:39;;;;;;;16.27;15.27;;;26.50;73.30;;;;;;5004478;28;20523;-73
2021/05/29 12:14:12;;;;;;;17.13;15.73;;;26.70;73.00;;;;;;4998491;28;20470;-74
2021/05/29 12:16:41;;;;;;;15.90;15.00;;;27.20;72.60;;;;;;4997706;28;20469;-73
2021/05/29 12:19:07;;;;;;;16.23;15.40;;;27.40;72.00;;;;;;5000565;28;20509;-74
2021/05/29 12:21:51;;;;;;;16.60;15.60;;;27.80;71.10;;;;;;4999139;28;20466;-74
2021/05/29 12:24:19;;;;;;;15.90;15.10;;;27.60;69.70;;;;;;4997397;28;20569;-74
2021/05/29 12:26:46;;;;;;;17.30;16.20;;;27.40;71.80;;;;;;5003786;28;20889;-74
2021/05/29 12:29:17;;;;;;;16.17;14.80;;;27.20;69.60;;;;;;5003848;28;20551;-74
2021/05/29 12:31:48;;;;;;;16.80;15.70;;;27.00;71.70;;;;;;4999719;28;20464;-74
2021/05/29 12:34:15;;;;;;;17.90;16.60;;;27.10;74.60;;;;;;5000419;28;20454;-74
2021/05/29 12:37:04;;;;;;;16.67;15.47;;;26.80;73.00;;;;;;5002263;28;20469;-74
2021/05/29 12:39:49;;;;;;;17.53;16.50;;;26.20;74.20;;;;;;5003035;28;20454;-74
2021/05/29 12:42:35;;;;;;;17.63;16.40;;;26.90;76.20;;;;;;5001614;28;20485;-73
2021/05/29 12:45:07;;;;;;;17.50;16.30;;;26.50;72.50;;;;;;5000010;28;20463;-74
2021/05/29 12:47:35;;;;;;;18.17;16.97;;;25.90;73.90;;;;;;5003789;28;20462;-73